Time;durP1;ratioP1;P1;durP2;ratioP2;P2;SDS_P1;SDS_P2;PMS_P1;PMS_P2;Temp;Humidity;BMP_temperature;BMP_pressure;BME280_temperature;BME280_humidity;BME280_pressure;Samples;Min_cycle;Max_cycle;Signal;HPM_P1;HPM_P2
2021/08/04 00:01:38;;;;;;;6.40;2.90;;;;;;;15.58;87.24;100255.03;20948751;28;20044;-81
2021/08/04 00:11:40;;;;;;;5.10;2.78;;;;;;;15.65;86.80;100253.06;20930130;28;20049;-80
2021/08/04 00:21:42;;;;;;;5.00;2.70;;;;;;;15.68;86.62;100236.25;20926306;28;20103;-80
2021/08/04 00:31:44;;;;;;;6.15;3.00;;;;;;;15.58;87.26;100247.13;20921001;28;20407;-80
2021/08/04 00:41:46;;;;;;;5.97;2.70;;;;;;;15.55;87.54;100243.75;20925189;28;20044;-80
2021/08/04 00:51:48;;;;;;;6.47;2.67;;;;;;;15.55;86.96;100247.25;20925510;28;20049;-80
2021/08/04 01:02:09;;;;;;;6.38;2.55;;;;;;;15.50;86.84;100258.91;20926094;28;20053;-80
2021/08/04 01:12:18;;;;;;;6.38;2.38;;;;;;;15.39;86.77;100246.13;20931113;28;20079;-80
2021/08/04 01:22:46;;;;;;;6.38;2.40;;;;;;;15.38;85.91;100247.03;20928262;28;20041;-80
2021/08/04 01:32:49;;;;;;;6.05;2.70;;;;;;;15.34;86.54;100248.06;20919400;28;20049;-80
2021/08/04 01:42:51;;;;;;;7.72;2.35;;;;;;;15.29;86.39;100240.31;20914504;28;20049;-80
2021/08/04 01:52:53;;;;;;;5.30;2.35;;;;;;;15.37;86.33;100247.94;20886939;28;20445;-80
2021/08/04 02:02:55;;;;;;;7.18;2.58;;;;;;;15.32;85.87;100249.88;20910098;28;20099;-80
2021/08/04 02:13:08;;;;;;;6.88;2.78;;;;;;;15.22;87.04;100241.47;20908628;28;20052;-79
2021/08/04 02:23:16;;;;;;;6.63;2.65;;;;;;;15.30;86.90;100249.09;20923349;28;20483;-80
2021/08/04 02:33:20;;;;;;;6.20;2.28;;;;;;;15.24;86.64;100236.16;20922993;28;20045;-80
2021/08/04 02:43:22;;;;;;;5.25;2.38;;;;;;;15.21;87.40;100231.84;20924698;28;20041;-80
2021/08/04 02:53:24;;;;;;;4.53;2.53;;;;;;;15.14;86.82;100223.31;20908644;28;20485;-80
2021/08/04 03:03:26;;;;;;;5.68;2.78;;;;;;;15.13;87.57;100215.44;20928945;28;20094;-80
2021/08/04 03:13:28;;;;;;;4.40;2.13;;;;;;;15.09;87.83;100212.06;20928466;28;20094;-80
2021/08/04 03:23:30;;;;;;;5.18;2.80;;;;;;;15.07;87.59;100211.25;20928038;28;20044;-80
2021/08/04 03:33:32;;;;;;;6.97;2.80;;;;;;;15.04;87.42;100221.94;20927323;28;20094;-80
2021/08/04 03:43:34;;;;;;;6.50;3.00;;;;;;;14.98;87.71;100239.72;20926677;28;20091;-80
2021/08/04 03:53:36;;;;;;;5.47;2.97;;;;;;;14.92;87.64;100237.31;20928777;28;20048;-80
2021/08/04 04:03:38;;;;;;;4.70;2.55;;;;;;;14.87;87.40;100238.34;20912577;28;20041;-80
2021/08/04 04:13:40;;;;;;;6.32;2.97;;;;;;;14.91;87.20;100244.38;20931934;28;20045;-80
2021/08/04 04:23:43;;;;;;;5.50;3.13;;;;;;;14.91;87.02;100244.38;20926492;28;20045;-80
2021/08/04 04:33:44;;;;;;;8.05;4.15;;;;;;;14.92;87.95;100246.09;20899661;28;20585;-80
2021/08/04 04:43:46;;;;;;;10.13;4.38;;;;;;;15.01;86.26;100258.94;20915663;28;20384;-80
2021/08/04 04:53:50;;;;;;;6.05;3.28;;;;;;;15.12;86.10;100254.13;20916892;28;20053;-80
2021/08/04 05:03:52;;;;;;;5.78;3.20;;;;;;;15.13;86.03;100249.72;20914554;28;20041;-80
2021/08/04 05:13:54;;;;;;;5.20;3.08;;;;;;;15.18;85.21;100254.81;20914335;28;20086;-80
2021/08/04 05:23:57;;;;;;;6.13;3.00;;;;;;;15.30;84.84;100255.22;20916097;28;20051;-80
2021/08/04 05:33:59;;;;;;;7.20;2.78;;;;;;;15.55;83.30;100251.66;20913958;28;20074;-80
2021/08/04 05:44:01;;;;;;;5.35;2.83;;;;;;;15.82;82.53;100265.59;20908880;28;20547;-78
2021/08/04 05:54:03;;;;;;;5.55;2.92;;;;;;;15.81;82.21;100251.53;20887347;28;20142;-78
2021/08/04 06:05:03;;;;;;;4.82;2.30;;;;;;;15.87;81.64;100256.56;20950890;28;20048;-78
2021/08/04 06:27:40;;;;;;;4.85;2.38;;;;;;;16.66;75.24;100252.41;20962248;28;20052;-78
2021/08/04 06:37:58;;;;;;;7.40;2.80;;;;;;;16.49;74.50;100236.41;20954483;28;20125;-78
2021/08/04 09:29:47;;;;;;;4.07;2.17;;;;;;;21.15;60.36;100219.09;20507209;28;20046;-78
2021/08/04 09:41:11;;;;;;;4.68;2.78;;;;;;;21.49;57.29;100193.03;20559660;28;20039;-78
2021/08/04 11:34:50;;;;;;;5.15;1.90;;;;;;;22.68;47.85;100091.66;20803803;28;20065;-78
2021/08/04 11:46:19;;;;;;;3.25;1.70;;;;;;;23.09;48.81;100111.88;20630971;28;20047;-78
2021/08/04 12:08:33;;;;;;;2.83;1.52;;;;;;;23.61;44.73;100091.16;20389424;28;20569;-79
2021/08/04 12:18:47;;;;;;;3.05;1.70;;;;;;;23.65;46.07;100088.19;20730381;28;20112;-80
2021/08/04 12:28:49;;;;;;;4.93;1.97;;;;;;;23.40;45.89;100085.63;20748474;28;20042;-79
2021/08/04 12:38:55;;;;;;;3.70;1.70;;;;;;;23.93;42.59;100084.28;20755698;28;20038;-79
2021/08/04 12:48:58;;;;;;;2.47;1.40;;;;;;;23.95;43.01;100084.16;20753922;28;20058;-79
2021/08/04 12:59:05;;;;;;;10.33;2.27;;;;;;;23.86;44.58;100076.81;20758173;28;20045;-79
2021/08/04 13:09:07;;;;;;;4.75;1.60;;;;;;;23.77;45.10;100060.53;20761460;28;20180;-79
2021/08/04 13:19:17;;;;;;;8.07;2.25;;;;;;;23.88;43.84;100056.19;20849276;28;20467;-80
2021/08/04 13:29:27;;;;;;;6.65;1.85;;;;;;;24.02;44.02;100045.28;20827574;28;20107;-79
2021/08/04 13:39:28;;;;;;;4.43;1.40;;;;;;;23.09;44.24;100053.13;20826283;28;20046;-79
2021/08/04 13:49:30;;;;;;;11.80;2.33;;;;;;;22.94;45.65;100035.56;20827188;28;20168;-79
2021/08/04 13:59:32;;;;;;;9.75;2.78;;;;;;;23.85;43.50;100033.19;20831514;28;20049;-79
2021/08/04 14:09:34;;;;;;;3.70;1.83;;;;;;;23.62;43.03;100028.72;20827744;28;20049;-79
2021/08/04 14:19:36;;;;;;;3.92;1.80;;;;;;;23.82;45.37;100020.09;20844402;28;20414;-79
2021/08/04 14:29:38;;;;;;;3.88;1.83;;;;;;;23.47;45.54;100023.56;20846747;28;20406;-79
2021/08/04 14:39:40;;;;;;;3.95;1.70;;;;;;;22.78;48.89;100023.31;20845973;28;20569;-79
2021/08/04 14:49:42;;;;;;;4.40;1.75;;;;;;;23.10;47.67;100017.47;20843235;28;20103;-79
2021/08/04 14:59:43;;;;;;;3.15;1.48;;;;;;;22.94;45.88;100014.22;20842167;28;20450;-79
2021/08/04 15:09:45;;;;;;;3.60;1.60;;;;;;;22.90;48.20;100002.03;20842435;28;20072;-80
2021/08/04 15:19:47;;;;;;;3.05;1.73;;;;;;;22.29;49.64;100004.63;20827210;28;20103;-79
2021/08/04 15:29:49;;;;;;;2.47;1.40;;;;;;;22.04;48.90;100000.13;20843509;28;20565;-78
2021/08/04 15:39:51;;;;;;;4.75;1.70;;;;;;;;;;20844620;28;20046;-78
2021/08/04 15:49:52;;;;;;;2.90;1.48;;;;;;;22.00;50.24;99994.16;20851691;28;20053;-79
2021/08/04 15:59:54;;;;;;;3.00;1.50;;;;;;;21.81;50.03;99987.53;20855566;28;20120;-79
2021/08/04 16:09:56;;;;;;;2.70;1.40;;;;;;;21.89;50.19;99995.84;20879290;28;20068;-78
2021/08/04 16:19:58;;;;;;;3.00;1.20;;;;;;;21.76;49.15;99980.72;20848587;28;20053;-79
2021/08/04 16:30:00;;;;;;;4.05;1.83;;;;;;;21.77;49.58;99968.25;20843703;28;20045;-78
2021/08/04 16:40:04;;;;;;;3.35;1.55;;;;;;;21.69;50.10;99976.75;20832792;28;20107;-78
2021/08/04 16:50:07;;;;;;;2.83;1.42;;;;;;;22.08;48.07;99963.41;20835675;28;20092;-78
2021/08/04 17:00:12;;;;;;;2.97;1.65;;;;;;;22.13;47.14;99955.97;20833834;28;20045;-78
2021/08/04 17:10:20;;;;;;;3.38;1.40;;;;;;;22.06;47.92;99955.53;20974616;28;20361;-69
2021/08/04 17:20:21;;;;;;;3.20;1.48;;;;;;;22.12;48.32;99949.78;20973242;28;20053;-69
2021/08/04 17:30:23;;;;;;;3.22;1.80;;;;;;;21.70;49.78;99954.50;20974405;28;20056;-69
2021/08/04 17:40:25;;;;;;;4.13;1.75;;;;;;;21.56;49.81;99957.25;20990876;28;20040;-68
2021/08/04 17:50:27;;;;;;;3.60;1.80;;;;;;;21.35;50.77;99958.69;20969703;28;20090;-69
2021/08/04 18:00:29;;;;;;;4.28;1.83;;;;;;;21.14;54.32;99964.47;20968145;28;20102;-69
2021/08/04 18:10:31;;;;;;;5.80;2.28;;;;;;;20.93;56.08;99955.22;20974100;28;20049;-70
2021/08/04 18:20:33;;;;;;;4.32;2.20;;;;;;;20.60;58.33;99953.84;20999432;28;20528;-70
2021/08/04 18:30:37;;;;;;;4.55;2.17;;;;;;;20.31;61.26;99971.59;20995435;28;20051;-70
2021/08/04 18:40:39;;;;;;;6.83;2.27;;;;;;;20.05;63.15;99970.56;20993477;28;20201;-70
2021/08/04 18:50:41;;;;;;;6.97;2.67;;;;;;;19.89;64.45;99977.78;20993234;28;20048;-69
2021/08/04 19:00:43;;;;;;;6.70;2.83;;;;;;;19.70;64.99;99981.53;20992476;28;20102;-69
2021/08/04 19:10:45;;;;;;;4.50;2.20;;;;;;;19.61;64.52;99992.72;20984300;28;20053;-69
2021/08/04 19:20:46;;;;;;;5.00;2.70;;;;;;;19.40;65.78;99993.94;20908233;28;20052;-69
2021/08/04 19:30:49;;;;;;;6.05;2.15;;;;;;;19.20;66.28;99998.59;20906300;28;20048;-69
2021/08/04 19:40:51;;;;;;;4.80;2.58;;;;;;;19.09;66.55;100005.50;20906003;28;20506;-70
2021/08/04 19:50:53;;;;;;;4.20;2.55;;;;;;;18.92;67.65;99999.34;20905751;28;20122;-70
2021/08/04 20:00:54;;;;;;;5.82;2.58;;;;;;;18.79;67.60;100002.78;20904229;28;20107;-70
2021/08/04 20:10:57;;;;;;;5.75;2.70;;;;;;;18.68;66.79;100009.53;20915544;28;20048;-70
2021/08/04 20:20:58;;;;;;;4.30;2.45;;;;;;;18.58;66.49;100005.63;20984852;28;20085;-71
2021/08/04 20:31:00;;;;;;;5.68;2.75;;;;;;;18.45;66.07;100007.25;20983726;28;20037;-70
2021/08/04 20:41:02;;;;;;;4.57;2.60;;;;;;;18.38;65.88;99997.91;20971854;28;20502;-71
2021/08/04 20:51:04;;;;;;;6.43;2.63;;;;;;;18.26;67.59;100002.09;20968372;28;20090;-70
2021/08/04 21:01:07;;;;;;;5.70;2.30;;;;;;;18.12;68.21;100016.06;20894769;28;20067;-71
2021/08/04 21:11:09;;;;;;;4.80;2.70;;;;;;;18.10;68.81;100020.59;20914363;28;20049;-70
2021/08/04 21:21:11;;;;;;;5.35;2.42;;;;;;;18.00;69.71;100024.66;20985665;28;20052;-70
2021/08/04 21:31:13;;;;;;;5.30;2.97;;;;;;;17.94;70.92;100022.34;20983177;28;20048;-69
2021/08/04 21:41:15;;;;;;;6.80;3.10;;;;;;;17.82;70.94;100025.59;20983225;28;20079;-71
2021/08/04 21:51:17;;;;;;;7.05;3.15;;;;;;;17.77;71.17;100032.94;20989938;28;20461;-71
2021/08/04 22:01:18;;;;;;;5.80;2.85;;;;;;;17.72;71.91;100050.81;20998537;28;20057;-70
2021/08/04 22:11:20;;;;;;;5.32;2.78;;;;;;;17.69;71.76;100042.09;20925571;28;20075;-70
2021/08/04 22:21:22;;;;;;;5.30;2.90;;;;;;;17.65;73.16;100045.84;20915370;28;20048;-70
2021/08/04 22:31:24;;;;;;;5.93;3.08;;;;;;;17.62;73.13;100061.00;20914066;28;20053;-70
2021/08/04 22:41:26;;;;;;;4.80;2.78;;;;;;;17.57;73.07;100048.00;20918585;28;20049;-70
2021/08/04 22:51:27;;;;;;;7.60;3.42;;;;;;;17.48;73.87;100059.06;20914559;28;20052;-71
2021/08/04 23:01:29;;;;;;;6.55;3.05;;;;;;;17.46;74.61;100065.38;20912156;28;20045;-71
2021/08/04 23:11:31;;;;;;;5.70;2.95;;;;;;;17.44;74.92;100070.75;20911653;28;20114;-70
2021/08/04 23:21:33;;;;;;;7.13;3.55;;;;;;;17.42;75.50;100056.72;20913966;28;20050;-70
2021/08/04 23:31:35;;;;;;;6.68;3.40;;;;;;;17.38;75.13;100037.47;20913938;28;20110;-70
2021/08/04 23:41:37;;;;;;;6.90;3.55;;;;;;;17.31;75.65;100038.72;20912607;28;20156;-70
2021/08/04 23:51:39;;;;;;;5.57;3.28;;;;;;;17.16;76.42;100028.91;20911632;28;20486;-70
